Frisco, TX

1:12 PM CST on February 10, 2016 (GMT -0600)
Toyota Stadium | | Change Station
CLOSE
Current Station
Personal Weather Station
Location: Frisco, TX
Elevation: 623 ft
Nearby Weather Stations

Elev 623 ft 33.16 °N, 96.84 °W | Updated 14 minutes ago

Clear
Clear
60.5 °F
Feels Like 60.5 °F
N
3.0
Wind Variable Wind from SSW

Today
High -- | Low -- °F
--% Chance of Precip.
Yesterday
High -- | Low -- °F
Precip. -- in
Pressure 30.25 in
Visibility 13.0 miles
Clouds Clear
Dew Point 34 °F
Humidity 37%
Rainfall 0.00 in
Snow Depth Not available.
7:16 AM 6:07 PM
Waxing Crescent, 6% visible
METAR KADS 101847Z 19008G17KT 13SM SKC 16/M01 A3025
Pressure 30.25 in
Visibility 13.0 miles
Clouds Clear
Dew Point 34 °F
Humidity 37%
Rainfall 0.00 in
Snow Depth Not available.
7:16 AM 6:07 PM
Waxing Crescent, 6% visible
METAR KADS 101847Z 19008G17KT 13SM SKC 16/M01 A3025

10-Day Weather Forecast

Almanac

Astronomy

Feb. 10, 2016 Rise Set
Actual Time
Civil Twilight
Nautical Twilight
Astronomical Twilight
Moon
Length of Visible Light
Length of Day
Tomorrow will be .
, % of the Moon is Illuminated

Today's Extremes

State Highs State Lows

Community

WunderPhotos

Upload Photos

1,891,922 photos uploaded!

WunderBlog® & News

Nearby

Air Quality

  Air Quality AQ Index Pollutant
Not available.

Snow Depth

Station Depth Elevation

Earthquake Activity

City Distance Mag. Time & Date
Minimum magnitude displayed is 2.5.

Coastal Water Temperatures

Place Temperature

Stations

Nearby Weather Stations

Station Location Temp. Windchill Dew Point Humidity Wind Precip. Elev Updated Type
                   

Watches & Warnings

There are currently no watches in effect.